Time;durP1;ratioP1;P1;durP2;ratioP2;P2;SDS_P1;SDS_P2;PMS_P1;PMS_P2;Temp;Humidity;BMP_temperature;BMP_pressure;BME280_temperature;BME280_humidity;BME280_pressure;Samples;Min_cycle;Max_cycle;Signal;HPM_P1;HPM_P2
2023/01/08 00:00:50;;;;;;;2.20;1.42;;;22.60;55.60;;;;;;5021429;28;20129;-65
2023/01/08 00:03:16;;;;;;;2.45;1.30;;;22.60;55.60;;;;;;5024982;28;20080;-65
2023/01/08 00:05:41;;;;;;;2.67;1.38;;;22.60;55.60;;;;;;5019178;28;20029;-66
2023/01/08 00:08:07;;;;;;;2.22;1.38;;;22.60;55.60;;;;;;5020015;28;20077;-65
2023/01/08 00:10:37;;;;;;;2.08;1.30;;;22.60;55.60;;;;;;5022476;28;20354;-65
2023/01/08 00:13:04;;;;;;;2.70;1.30;;;22.60;55.70;;;;;;5019854;28;20123;-65
2023/01/08 00:15:30;;;;;;;2.08;1.38;;;22.60;55.70;;;;;;5022473;28;20035;-66
2023/01/08 00:17:56;;;;;;;2.00;1.20;;;22.50;55.60;;;;;;5020306;28;20022;-65
2023/01/08 00:20:22;;;;;;;1.92;1.30;;;22.50;55.60;;;;;;5021116;28;20481;-66
2023/01/08 00:22:49;;;;;;;2.72;1.33;;;22.50;55.60;;;;;;5021393;28;20528;-65
2023/01/08 00:25:17;;;;;;;2.45;1.30;;;22.50;55.70;;;;;;5021524;28;20040;-65
2023/01/08 00:27:43;;;;;;;2.17;1.30;;;22.50;55.70;;;;;;5020235;28;20485;-65
2023/01/08 00:30:10;;;;;;;1.92;1.20;;;22.40;55.70;;;;;;5020358;28;20092;-66
2023/01/08 00:32:35;;;;;;;2.83;1.38;;;22.40;55.70;;;;;;5019603;28;20076;-66
2023/01/08 00:35:01;;;;;;;1.85;1.30;;;22.40;56.20;;;;;;5022993;28;20469;-65
2023/01/08 00:37:27;;;;;;;1.98;1.20;;;22.40;55.70;;;;;;5017211;28;20026;-65
2023/01/08 00:39:53;;;;;;;2.00;1.20;;;22.40;55.70;;;;;;5018896;28;20040;-65
2023/01/08 00:42:19;;;;;;;1.98;1.20;;;22.40;55.70;;;;;;5021736;28;20441;-65
2023/01/08 00:44:44;;;;;;;2.30;1.20;;;22.30;55.70;;;;;;5016857;28;20544;-66
2023/01/08 00:47:10;;;;;;;1.73;1.10;;;22.30;55.70;;;;;;5017994;28;20029;-65
2023/01/08 00:49:36;;;;;;;1.73;1.20;;;22.30;55.70;;;;;;5022260;28;20080;-66
2023/01/08 00:52:01;;;;;;;1.50;1.08;;;22.30;55.80;;;;;;5020254;28;20481;-66
2023/01/08 00:54:28;;;;;;;2.03;1.20;;;22.30;55.80;;;;;;5023590;28;20036;-65
2023/01/08 00:56:56;;;;;;;1.77;1.10;;;22.20;55.80;;;;;;5018451;28;20056;-65
2023/01/08 00:59:22;;;;;;;2.45;1.20;;;22.20;55.80;;;;;;5019162;28;20136;-65
2023/01/08 01:01:48;;;;;;;1.90;1.20;;;22.20;55.80;;;;;;5018056;28;20089;-65
2023/01/08 01:04:14;;;;;;;1.58;1.20;;;22.20;55.80;;;;;;5017684;28;20147;-65
2023/01/08 01:06:40;;;;;;;1.35;0.93;;;22.20;55.80;;;;;;5019099;28;20519;-66
2023/01/08 01:09:06;;;;;;;1.88;1.23;;;22.20;55.90;;;;;;5024773;28;20606;-66
2023/01/08 01:11:32;;;;;;;2.78;1.50;;;22.20;55.90;;;;;;5018946;28;20045;-66
2023/01/08 01:13:58;;;;;;;1.80;1.13;;;22.10;55.90;;;;;;5017177;28;20103;-66
2023/01/08 01:16:24;;;;;;;1.83;1.20;;;22.10;55.90;;;;;;5019781;28;20026;-66
2023/01/08 01:18:51;;;;;;;2.40;1.52;;;22.10;55.90;;;;;;5018342;28;20032;-65
2023/01/08 01:21:16;;;;;;;1.77;1.25;;;22.10;55.90;;;;;;5018226;28;20048;-65
2023/01/08 01:23:42;;;;;;;2.25;1.20;;;22.10;55.90;;;;;;5016732;28;20109;-65
2023/01/08 01:26:19;;;;;;;1.92;1.23;;;22.10;56.00;;;;;;5015377;28;20444;-66
2023/01/08 01:28:49;;;;;;;1.88;1.13;;;22.10;56.00;;;;;;5019434;28;20024;-65
2023/01/08 01:31:16;;;;;;;1.73;1.15;;;22.10;56.00;;;;;;5017456;28;20057;-66
2023/01/08 01:33:42;;;;;;;1.80;1.20;;;22.00;56.50;;;;;;5015013;28;20022;-65
2023/01/08 01:36:10;;;;;;;2.33;1.30;;;22.00;56.00;;;;;;5017047;28;20561;-65
2023/01/08 01:38:35;;;;;;;3.13;1.10;;;22.00;56.50;;;;;;5019219;28;20025;-67
2023/01/08 01:41:01;;;;;;;1.83;1.20;;;22.00;56.00;;;;;;5019850;28;20092;-65
2023/01/08 01:43:39;;;;;;;1.67;1.20;;;22.00;56.10;;;;;;5018215;28;20076;-66
2023/01/08 01:46:38;;;;;;;1.85;1.20;;;22.00;56.10;;;;;;5016614;28;20034;-65
2023/01/08 01:49:14;;;;;;;1.80;1.20;;;21.90;56.10;;;;;;5019770;28;20064;-65
2023/01/08 01:51:46;;;;;;;1.85;1.20;;;21.90;56.10;;;;;;5018859;28;20045;-65
2023/01/08 01:54:12;;;;;;;1.88;1.23;;;21.90;56.10;;;;;;5014765;28;20032;-66
2023/01/08 01:56:38;;;;;;;3.08;1.10;;;21.90;56.10;;;;;;5018942;28;20029;-65
2023/01/08 01:59:05;;;;;;;2.13;1.30;;;21.90;56.10;;;;;;5019278;28;20400;-66
2023/01/08 02:01:31;;;;;;;1.77;1.05;;;21.80;56.10;;;;;;5019608;28;20034;-65
2023/01/08 02:03:57;;;;;;;1.90;1.17;;;21.80;56.10;;;;;;5016970;28;20048;-65
2023/01/08 02:06:57;;;;;;;2.00;1.05;;;21.80;56.20;;;;;;5016516;28;20420;-65
2023/01/08 02:09:40;;;;;;;2.05;1.30;;;21.80;56.20;;;;;;5030759;28;20088;-65
2023/01/08 02:12:25;;;;;;;2.58;1.30;;;21.80;56.20;;;;;;5015866;28;20128;-66
2023/01/08 02:15:10;;;;;;;1.98;1.17;;;21.80;56.20;;;;;;5026611;28;20025;-65
2023/01/08 02:17:47;;;;;;;1.70;1.10;;;21.70;56.20;;;;;;5021420;28;20441;-66
2023/01/08 02:20:22;;;;;;;1.55;1.00;;;21.70;56.20;;;;;;5018760;28;20117;-65
2023/01/08 02:23:09;;;;;;;1.70;1.20;;;21.70;56.20;;;;;;5016087;28;20485;-65
2023/01/08 02:25:56;;;;;;;1.15;0.95;;;21.70;56.30;;;;;;5018760;28;20048;-65
2023/01/08 02:28:23;;;;;;;1.95;1.20;;;21.70;56.30;;;;;;5021486;28;20083;-66
2023/01/08 02:30:49;;;;;;;1.83;1.10;;;21.70;56.30;;;;;;5022325;28;20037;-65
2023/01/08 02:33:15;;;;;;;1.80;1.10;;;21.60;56.30;;;;;;5021840;28;20026;-65
2023/01/08 02:35:50;;;;;;;2.10;1.13;;;21.60;56.30;;;;;;5023118;28;20048;-65
2023/01/08 02:38:17;;;;;;;1.65;1.13;;;21.60;56.30;;;;;;5021644;28;20026;-66
2023/01/08 02:41:04;;;;;;;1.55;1.10;;;21.60;56.30;;;;;;5023367;28;20071;-66
2023/01/08 02:43:40;;;;;;;1.40;0.90;;;21.60;56.40;;;;;;5021264;28;20132;-65
2023/01/08 02:46:10;;;;;;;1.73;1.10;;;21.60;56.40;;;;;;5018751;28;20029;-66
2023/01/08 02:48:44;;;;;;;1.42;1.02;;;21.60;56.40;;;;;;5018778;28;20454;-66
2023/01/08 02:51:20;;;;;;;2.00;1.30;;;21.60;56.40;;;;;;5020766;28;20029;-65
2023/01/08 02:53:50;;;;;;;1.42;1.10;;;21.50;56.40;;;;;;5020549;28;20036;-65
2023/01/08 02:56:23;;;;;;;1.80;1.08;;;21.50;56.40;;;;;;5019588;28;20524;-66
2023/01/08 02:58:57;;;;;;;1.45;1.00;;;21.50;56.40;;;;;;5023132;28;20038;-65
2023/01/08 03:01:23;;;;;;;1.85;1.10;;;21.50;56.40;;;;;;5017888;28;20662;-66
2023/01/08 03:03:53;;;;;;;1.40;1.02;;;21.50;56.40;;;;;;5025834;28;20030;-65
2023/01/08 03:06:20;;;;;;;2.35;1.20;;;21.50;56.40;;;;;;5020785;28;20084;-65
2023/01/08 03:08:48;;;;;;;1.80;1.10;;;21.50;56.40;;;;;;5023657;28;20059;-65
2023/01/08 03:11:17;;;;;;;2.22;1.10;;;21.50;56.50;;;;;;5023367;28;20026;-65
2023/01/08 03:13:53;;;;;;;1.30;1.02;;;21.40;56.50;;;;;;5021383;28;20080;-66
2023/01/08 03:16:31;;;;;;;1.60;1.00;;;21.40;56.50;;;;;;5018571;28;20038;-65
2023/01/08 03:19:06;;;;;;;1.80;1.10;;;21.40;56.50;;;;;;5023043;28;20439;-66
2023/01/08 03:21:33;;;;;;;2.42;1.20;;;21.40;56.50;;;;;;5017892;28;20492;-65
2023/01/08 03:24:00;;;;;;;2.00;1.20;;;21.40;56.50;;;;;;5028727;28;20354;-66
2023/01/08 03:26:29;;;;;;;1.67;1.15;;;21.40;56.50;;;;;;5019927;28;20054;-65
2023/01/08 03:28:56;;;;;;;1.33;1.05;;;21.40;56.60;;;;;;5021280;28;20061;-65
2023/01/08 03:31:24;;;;;;;1.98;1.08;;;21.40;56.60;;;;;;5017106;28;20030;-65
2023/01/08 03:33:50;;;;;;;1.40;1.00;;;21.30;56.50;;;;;;5021369;28;20099;-65
2023/01/08 03:36:22;;;;;;;2.35;1.10;;;21.40;56.60;;;;;;5019649;28;20500;-65
2023/01/08 03:39:11;;;;;;;1.50;1.10;;;21.30;56.60;;;;;;5022323;28;20450;-65
2023/01/08 03:41:37;;;;;;;;;;;21.30;56.60;;;;;;5028896;28;20042;-66
2023/01/08 03:44:03;;;;;;;1.38;1.05;;;21.30;56.60;;;;;;5027953;28;19911;-65
2023/01/08 03:46:33;;;;;;;2.10;1.10;;;21.30;56.60;;;;;;5020359;28;20030;-65
2023/01/08 03:48:59;;;;;;;1.30;1.00;;;21.30;56.60;;;;;;5018800;28;20038;-65
2023/01/08 03:51:25;;;;;;;1.55;1.10;;;21.30;56.70;;;;;;5019734;28;20030;-66
2023/01/08 03:53:57;;;;;;;1.40;1.08;;;21.30;56.60;;;;;;5016194;28;20032;-65
2023/01/08 03:56:22;;;;;;;1.73;1.17;;;21.30;56.70;;;;;;5038920;28;20105;-66
2023/01/08 03:58:48;;;;;;;1.08;0.80;;;21.20;56.60;;;;;;5017969;28;20465;-65
2023/01/08 04:01:14;;;;;;;1.63;1.00;;;21.20;56.70;;;;;;5026797;28;20488;-65
2023/01/08 04:03:39;;;;;;;1.58;1.10;;;21.20;56.70;;;;;;5021792;28;20033;-67
2023/01/08 04:06:05;;;;;;;2.15;1.20;;;21.20;56.70;;;;;;5016655;28;20090;-66
2023/01/08 04:08:30;;;;;;;1.33;1.00;;;21.20;56.70;;;;;;5020681;28;20022;-66
2023/01/08 04:10:56;;;;;;;1.70;1.05;;;21.20;56.70;;;;;;5025917;28;20033;-65
2023/01/08 04:13:22;;;;;;;2.42;1.20;;;21.20;56.70;;;;;;5015874;28;20037;-65
2023/01/08 04:15:48;;;;;;;2.22;0.90;;;21.20;56.70;;;;;;5015145;28;20056;-65
2023/01/08 04:18:14;;;;;;;1.60;1.02;;;21.20;56.80;;;;;;5017943;28;20073;-65
2023/01/08 04:20:45;;;;;;;1.80;1.23;;;21.20;56.80;;;;;;5020399;28;20507;-65
2023/01/08 04:23:10;;;;;;;1.00;0.90;;;21.20;56.80;;;;;;5023375;28;20442;-65
2023/01/08 04:25:37;;;;;;;1.33;0.90;;;21.10;56.70;;;;;;5020285;28;20040;-67
2023/01/08 04:28:03;;;;;;;1.45;0.80;;;21.10;56.70;;;;;;5021863;28;20453;-65
2023/01/08 04:30:28;;;;;;;1.13;0.93;;;21.10;56.80;;;;;;5021188;28;20087;-66
2023/01/08 04:32:54;;;;;;;1.85;1.00;;;21.10;56.80;;;;;;5022248;28;20108;-66
2023/01/08 04:35:21;;;;;;;1.25;1.00;;;21.10;56.80;;;;;;5016222;28;20489;-65
2023/01/08 04:37:46;;;;;;;1.33;0.98;;;21.10;56.80;;;;;;5021362;28;20049;-65
2023/01/08 04:40:12;;;;;;;1.45;0.90;;;21.10;56.80;;;;;;5017298;28;20096;-65
2023/01/08 04:42:40;;;;;;;1.73;1.13;;;21.10;56.90;;;;;;5022218;28;20478;-67
2023/01/08 04:45:06;;;;;;;1.60;1.10;;;21.10;56.80;;;;;;5018940;28;20061;-65
2023/01/08 04:47:32;;;;;;;1.60;1.10;;;21.10;56.80;;;;;;5020243;28;20041;-66
2023/01/08 04:49:58;;;;;;;1.20;1.00;;;21.10;56.90;;;;;;5018435;28;20034;-65
2023/01/08 04:52:23;;;;;;;1.17;0.93;;;21.10;56.90;;;;;;5017888;28;20022;-66
2023/01/08 04:54:49;;;;;;;1.10;0.93;;;21.00;56.80;;;;;;5019048;28;20049;-66
2023/01/08 04:57:14;;;;;;;1.55;1.00;;;21.10;56.90;;;;;;5020099;28;20025;-65
2023/01/08 04:59:40;;;;;;;1.67;1.00;;;21.00;56.90;;;;;;5027201;28;20041;-65
2023/01/08 05:02:06;;;;;;;1.25;0.90;;;21.00;56.80;;;;;;5018792;28;20065;-66
2023/01/08 05:04:31;;;;;;;1.40;0.98;;;21.00;56.90;;;;;;5019692;28;20026;-65
2023/01/08 05:06:57;;;;;;;1.50;1.00;;;21.00;56.90;;;;;;5021020;28;20029;-65
2023/01/08 05:09:22;;;;;;;1.40;0.95;;;21.00;56.90;;;;;;5022046;28;20028;-67
2023/01/08 05:11:48;;;;;;;1.52;1.00;;;21.00;56.90;;;;;;5021503;28;20038;-67
2023/01/08 05:14:13;;;;;;;1.15;0.90;;;21.00;56.90;;;;;;5019551;28;20025;-66
2023/01/08 05:16:39;;;;;;;1.25;0.80;;;21.00;56.90;;;;;;5018461;28;20034;-65
2023/01/08 05:19:05;;;;;;;1.58;1.08;;;21.00;57.00;;;;;;5018723;28;20029;-66
2023/01/08 05:21:30;;;;;;;1.52;1.00;;;21.00;57.00;;;;;;5018534;28;20026;-65
2023/01/08 05:23:56;;;;;;;1.13;0.90;;;21.00;57.00;;;;;;5021037;28;20037;-65
2023/01/08 05:26:21;;;;;;;1.17;0.90;;;21.00;57.00;;;;;;5016349;28;20030;-66
2023/01/08 05:28:47;;;;;;;1.58;1.00;;;21.00;57.00;;;;;;5016033;28;20025;-65
2023/01/08 05:31:13;;;;;;;1.55;1.00;;;21.00;57.00;;;;;;5018965;28;20030;-65
2023/01/08 05:33:39;;;;;;;1.20;0.90;;;21.00;57.00;;;;;;5018838;28;20045;-66
2023/01/08 05:36:10;;;;;;;1.55;0.80;;;21.00;57.00;;;;;;5017070;28;20481;-67
2023/01/08 05:38:36;;;;;;;1.17;0.88;;;20.90;57.00;;;;;;5020826;28;20448;-66
2023/01/08 05:41:01;;;;;;;1.17;0.90;;;20.90;57.00;;;;;;5019521;28;20120;-66
2023/01/08 05:43:28;;;;;;;1.40;1.00;;;20.90;57.00;;;;;;5020620;28;20048;-65
2023/01/08 05:45:53;;;;;;;0.95;0.80;;;20.90;57.00;;;;;;5022027;28;20036;-66
2023/01/08 05:48:19;;;;;;;1.58;0.95;;;20.90;57.10;;;;;;5019696;28;20026;-65
2023/01/08 05:50:47;;;;;;;0.90;0.80;;;20.90;57.10;;;;;;5022569;28;20056;-65
2023/01/08 05:53:12;;;;;;;1.30;1.00;;;20.90;57.10;;;;;;5019186;28;20131;-65
2023/01/08 05:55:38;;;;;;;1.52;0.90;;;20.90;57.10;;;;;;5021422;28;20493;-65
2023/01/08 05:58:04;;;;;;;1.17;0.85;;;20.90;57.10;;;;;;5025079;28;20354;-66
2023/01/08 06:00:31;;;;;;;1.50;0.93;;;20.90;57.10;;;;;;5022080;28;20033;-66
2023/01/08 06:02:57;;;;;;;0.80;0.80;;;20.90;57.10;;;;;;5020261;28;20045;-65
2023/01/08 06:05:22;;;;;;;1.17;0.90;;;20.90;57.20;;;;;;5021821;28;20500;-65
2023/01/08 06:07:48;;;;;;;1.13;0.82;;;20.90;57.10;;;;;;5018956;28;20033;-66
2023/01/08 06:10:14;;;;;;;0.73;0.70;;;20.90;57.20;;;;;;5022501;28;20517;-66
2023/01/08 06:12:39;;;;;;;0.98;0.85;;;20.80;57.10;;;;;;5023174;28;20316;-65
2023/01/08 06:15:05;;;;;;;0.98;0.88;;;20.80;57.10;;;;;;5025227;28;20018;-65
2023/01/08 06:17:31;;;;;;;1.38;0.95;;;20.90;57.20;;;;;;5036001;28;20117;-65
2023/01/08 06:19:57;;;;;;;1.23;0.93;;;20.80;57.10;;;;;;5022031;28;20407;-65
2023/01/08 06:22:22;;;;;;;1.33;0.90;;;20.80;57.20;;;;;;5022991;28;20489;-66
2023/01/08 06:24:48;;;;;;;1.05;0.82;;;20.80;57.20;;;;;;5022029;28;20507;-65
2023/01/08 06:27:13;;;;;;;1.58;0.90;;;20.80;57.20;;;;;;5027283;28;20029;-65
2023/01/08 06:29:39;;;;;;;0.80;0.70;;;20.80;57.20;;;;;;5023922;28;20022;-66
2023/01/08 06:32:05;;;;;;;1.20;0.93;;;20.80;57.20;;;;;;5023891;28;20532;-65
2023/01/08 06:34:30;;;;;;;1.00;0.80;;;20.80;57.10;;;;;;5027011;28;20128;-66
2023/01/08 06:36:56;;;;;;;0.85;0.77;;;20.80;57.20;;;;;;5024648;28;20104;-65
2023/01/08 06:39:21;;;;;;;1.10;0.88;;;20.80;57.20;;;;;;5018952;28;20583;-66
2023/01/08 06:41:47;;;;;;;1.00;0.80;;;20.80;57.20;;;;;;5019251;28;20110;-65
2023/01/08 06:44:12;;;;;;;0.88;0.70;;;20.80;57.20;;;;;;5023062;28;20034;-65
2023/01/08 06:46:39;;;;;;;1.13;1.00;;;20.80;57.20;;;;;;5020967;28;20109;-65
2023/01/08 06:49:06;;;;;;;1.48;0.90;;;20.80;57.30;;;;;;5024254;28;20056;-66
2023/01/08 06:51:31;;;;;;;1.30;0.80;;;20.80;57.20;;;;;;5023702;28;20045;-65
2023/01/08 06:53:57;;;;;;;1.30;0.90;;;20.80;57.20;;;;;;5016590;28;20426;-66
2023/01/08 06:56:22;;;;;;;1.23;0.85;;;20.80;57.20;;;;;;5020198;28;20029;-65
2023/01/08 06:58:48;;;;;;;0.90;0.80;;;20.80;57.30;;;;;;5021476;28;20037;-65
2023/01/08 07:01:15;;;;;;;1.33;0.90;;;20.80;57.20;;;;;;5021473;28;20033;-65
2023/01/08 07:03:41;;;;;;;1.42;0.80;;;20.80;57.30;;;;;;5018796;28;20519;-66
2023/01/08 07:06:10;;;;;;;0.90;0.73;;;20.80;57.30;;;;;;5019000;28;20025;-66
2023/01/08 07:08:36;;;;;;;1.35;0.90;;;20.70;57.20;;;;;;5022069;28;20029;-66
2023/01/08 07:11:03;;;;;;;0.90;0.80;;;20.80;57.30;;;;;;5019252;28;20062;-66
2023/01/08 07:13:28;;;;;;;1.00;0.80;;;20.80;57.30;;;;;;5020272;28;20021;-65
2023/01/08 07:15:54;;;;;;;0.93;0.80;;;20.80;57.30;;;;;;5020754;28;20528;-67
2023/01/08 07:18:20;;;;;;;1.00;0.80;;;20.70;57.20;;;;;;5024218;28;20025;-65
2023/01/08 07:20:49;;;;;;;1.10;0.88;;;20.70;57.20;;;;;;5021885;28;20026;-65
2023/01/08 07:23:15;;;;;;;1.10;0.90;;;20.70;57.20;;;;;;5018886;28;20500;-65
2023/01/08 07:25:40;;;;;;;1.30;0.90;;;20.70;57.20;;;;;;5020150;28;20037;-65
2023/01/08 07:28:10;;;;;;;0.80;0.73;;;20.70;57.20;;;;;;5022471;28;20512;-65
2023/01/08 07:30:36;;;;;;;1.23;0.90;;;20.70;57.20;;;;;;5019638;28;20029;-65
2023/01/08 07:33:01;;;;;;;1.20;0.80;;;20.70;57.20;;;;;;5020692;28;20045;-65
2023/01/08 07:35:28;;;;;;;1.08;0.90;;;20.70;57.20;;;;;;5018889;28;20096;-67
2023/01/08 07:37:54;;;;;;;0.98;0.80;;;20.70;57.20;;;;;;5021687;28;20049;-65
2023/01/08 07:40:19;;;;;;;1.10;0.90;;;20.70;57.20;;;;;;5020723;28;20034;-65
2023/01/08 07:42:45;;;;;;;1.33;0.80;;;20.70;57.30;;;;;;5021493;28;20113;-66
2023/01/08 07:45:11;;;;;;;1.10;0.90;;;20.70;57.20;;;;;;5019880;28;20536;-66
2023/01/08 07:47:36;;;;;;;1.08;0.80;;;20.70;57.30;;;;;;5023239;28;20082;-67
2023/01/08 07:50:02;;;;;;;1.25;0.82;;;20.70;57.30;;;;;;5018042;28;20042;-65
2023/01/08 07:52:28;;;;;;;1.20;0.80;;;20.70;57.30;;;;;;5021108;28;20022;-65
2023/01/08 07:54:54;;;;;;;1.15;0.90;;;20.70;57.30;;;;;;5023184;28;20025;-65
2023/01/08 07:57:19;;;;;;;1.60;0.90;;;20.70;57.30;;;;;;5021141;28;20026;-66
2023/01/08 07:59:45;;;;;;;1.10;0.90;;;20.70;57.30;;;;;;5018547;28;20080;-66
2023/01/08 08:02:10;;;;;;;1.30;0.90;;;20.70;57.30;;;;;;5020199;28;20034;-66
2023/01/08 08:04:36;;;;;;;0.82;0.70;;;20.70;57.30;;;;;;5023132;28;20101;-65
2023/01/08 08:07:02;;;;;;;1.20;0.90;;;20.60;57.30;;;;;;5024447;28;20052;-65
2023/01/08 08:09:28;;;;;;;1.40;0.80;;;20.70;57.30;;;;;;5018919;28;20040;-66
2023/01/08 08:11:53;;;;;;;1.02;0.90;;;20.60;57.30;;;;;;5017446;28;20029;-65
2023/01/08 08:14:19;;;;;;;0.80;0.80;;;20.60;57.30;;;;;;5017387;28;20544;-65
2023/01/08 08:16:44;;;;;;;1.10;0.80;;;20.60;57.30;;;;;;5015877;28;20033;-65
2023/01/08 08:19:11;;;;;;;0.93;0.80;;;20.60;57.30;;;;;;5023155;28;20406;-65
2023/01/08 08:21:37;;;;;;;1.10;0.80;;;20.60;57.30;;;;;;5021698;28;20017;-65
2023/01/08 08:24:03;;;;;;;1.02;0.80;;;20.60;57.30;;;;;;5025355;28;20104;-65
2023/01/08 08:26:29;;;;;;;0.80;0.70;;;20.60;57.30;;;;;;5023391;28;20040;-65
2023/01/08 08:28:55;;;;;;;1.35;0.90;;;20.60;57.30;;;;;;5019654;28;20097;-65
2023/01/08 08:31:21;;;;;;;1.13;0.82;;;20.60;57.30;;;;;;5016640;28;20380;-65
2023/01/08 08:33:46;;;;;;;0.98;0.80;;;20.60;57.40;;;;;;5019315;28;20496;-65
2023/01/08 08:36:12;;;;;;;1.25;0.80;;;20.60;57.30;;;;;;5017150;28;20106;-66
2023/01/08 08:38:38;;;;;;;0.95;0.75;;;20.60;57.30;;;;;;5020336;28;20026;-65
2023/01/08 08:41:04;;;;;;;1.08;0.90;;;20.60;57.30;;;;;;5020924;28;20032;-66
2023/01/08 08:43:30;;;;;;;0.90;0.80;;;20.60;57.30;;;;;;5021462;28;20029;-65
2023/01/08 08:45:56;;;;;;;1.40;0.95;;;20.60;57.30;;;;;;5022405;28;20083;-65
2023/01/08 08:48:22;;;;;;;0.88;0.70;;;20.60;57.40;;;;;;5019455;28;20430;-65
2023/01/08 08:50:48;;;;;;;1.05;0.80;;;20.60;57.40;;;;;;5019101;28;20025;-65
2023/01/08 08:53:13;;;;;;;1.40;0.98;;;20.60;57.40;;;;;;5018740;28;20539;-66
2023/01/08 08:55:39;;;;;;;1.17;0.82;;;20.50;57.40;;;;;;5018281;28;20485;-65
2023/01/08 08:58:09;;;;;;;1.08;0.82;;;20.60;57.40;;;;;;5017531;28;20030;-66
2023/01/08 09:00:36;;;;;;;1.10;0.90;;;20.60;57.40;;;;;;5020597;28;20022;-65
2023/01/08 09:03:02;;;;;;;1.23;0.90;;;20.60;57.40;;;;;;5021884;28;20133;-65
2023/01/08 09:05:28;;;;;;;1.30;0.88;;;20.60;57.40;;;;;;5022108;28;20537;-66
2023/01/08 09:07:55;;;;;;;1.30;0.93;;;20.50;57.40;;;;;;5023171;28;20033;-65
2023/01/08 09:10:21;;;;;;;1.30;0.90;;;20.50;57.40;;;;;;5019791;28;20022;-66
2023/01/08 09:12:47;;;;;;;1.20;0.90;;;20.50;57.40;;;;;;5018604;28;20071;-66
2023/01/08 09:15:13;;;;;;;1.10;0.80;;;20.50;57.40;;;;;;5017748;28;20068;-65
2023/01/08 09:17:38;;;;;;;1.50;0.90;;;20.50;57.40;;;;;;5025024;28;20030;-65
2023/01/08 09:20:05;;;;;;;1.25;0.90;;;20.50;57.40;;;;;;5017588;28;20538;-65
2023/01/08 09:22:31;;;;;;;1.38;0.90;;;20.50;57.40;;;;;;5016384;28;20033;-65
2023/01/08 09:24:56;;;;;;;1.55;1.00;;;20.50;57.40;;;;;;5018196;28;20187;-66
2023/01/08 09:27:22;;;;;;;1.30;0.88;;;20.50;57.40;;;;;;5016672;28;20093;-65
2023/01/08 09:29:48;;;;;;;1.13;0.90;;;20.50;57.40;;;;;;5018924;28;20437;-65
2023/01/08 09:32:13;;;;;;;1.13;0.93;;;20.50;57.50;;;;;;5019004;28;20025;-65
2023/01/08 09:34:39;;;;;;;1.30;0.90;;;20.50;57.50;;;;;;5021562;28;20080;-66
2023/01/08 09:37:05;;;;;;;1.23;0.90;;;20.50;57.60;;;;;;5017298;28;20030;-65
2023/01/08 09:39:31;;;;;;;1.58;0.93;;;20.50;57.60;;;;;;5021197;28;20033;-65
2023/01/08 09:42:00;;;;;;;1.48;0.90;;;20.50;57.60;;;;;;5019824;28;20037;-65
2023/01/08 09:44:29;;;;;;;1.20;1.08;;;20.50;57.70;;;;;;5021408;28;20025;-66
2023/01/08 09:46:55;;;;;;;1.67;1.00;;;20.50;57.90;;;;;;5019739;28;20049;-65
2023/01/08 09:49:27;;;;;;;1.10;0.90;;;20.40;57.90;;;;;;5019838;28;20026;-66
2023/01/08 09:51:53;;;;;;;1.50;1.00;;;20.40;58.00;;;;;;5017192;28;20441;-65
2023/01/08 09:54:23;;;;;;;1.48;0.95;;;20.50;58.10;;;;;;5016960;28;20089;-65
2023/01/08 09:56:49;;;;;;;1.27;0.95;;;20.40;58.10;;;;;;5019536;28;20022;-65
2023/01/08 09:59:17;;;;;;;1.50;1.05;;;20.40;58.10;;;;;;5017831;28;20163;-66
2023/01/08 10:01:44;;;;;;;1.27;1.00;;;20.40;58.30;;;;;;5016317;28;20022;-65
2023/01/08 10:04:10;;;;;;;1.60;1.15;;;20.50;58.40;;;;;;5018391;28;20453;-65
2023/01/08 10:06:36;;;;;;;1.48;1.00;;;20.40;58.30;;;;;;5017070;28;20096;-65
2023/01/08 10:09:02;;;;;;;1.65;0.95;;;20.40;58.40;;;;;;5020557;28;20084;-65
2023/01/08 10:11:42;;;;;;;1.50;1.00;;;20.40;58.40;;;;;;5014996;28;20018;-66
2023/01/08 10:14:21;;;;;;;2.05;1.00;;;20.50;58.40;;;;;;5016963;28;20452;-65
2023/01/08 10:16:48;;;;;;;;;;;20.40;58.50;;;;;;5017250;28;20793;-65
2023/01/08 10:19:14;;;;;;;1.00;0.82;;;20.40;58.50;;;;;;5017776;28;19956;-64
2023/01/08 10:21:40;;;;;;;1.30;0.95;;;20.40;58.60;;;;;;5022629;28;20435;-65
2023/01/08 10:24:06;;;;;;;1.40;1.00;;;20.40;58.60;;;;;;5019617;28;20034;-66
2023/01/08 10:26:35;;;;;;;1.63;1.13;;;20.40;58.70;;;;;;5018630;28;20033;-66
2023/01/08 10:29:18;;;;;;;1.73;1.05;;;20.40;58.70;;;;;;5015488;28;20058;-65
2023/01/08 10:31:48;;;;;;;2.38;1.20;;;20.40;59.20;;;;;;5014998;28;20061;-65
2023/01/08 10:34:38;;;;;;;3.10;1.20;;;20.40;58.90;;;;;;5020134;28;20427;-66
2023/01/08 10:37:33;;;;;;;1.60;1.10;;;20.40;58.90;;;;;;5021179;28;20033;-66
2023/01/08 10:40:15;;;;;;;2.78;1.50;;;20.40;59.00;;;;;;5023883;28;20133;-66
2023/01/08 10:42:41;;;;;;;2.28;1.40;;;20.40;59.10;;;;;;5022251;28;20117;-65
2023/01/08 10:45:17;;;;;;;2.15;1.35;;;20.40;59.10;;;;;;5025056;28;20109;-66
2023/01/08 10:47:46;;;;;;;2.60;1.30;;;20.40;59.30;;;;;;5023493;28;20439;-66
2023/01/08 10:50:24;;;;;;;2.83;1.40;;;20.40;59.30;;;;;;5019974;28;20037;-66
2023/01/08 10:53:02;;;;;;;2.88;1.50;;;20.40;59.30;;;;;;5019173;28;20495;-65
2023/01/08 10:55:30;;;;;;;2.50;1.38;;;20.40;59.40;;;;;;5020433;28;20034;-66
2023/01/08 10:57:59;;;;;;;2.53;1.50;;;20.40;59.50;;;;;;5022779;28;20123;-65
2023/01/08 11:00:33;;;;;;;4.80;1.60;;;20.40;59.50;;;;;;5020550;28;20030;-65
2023/01/08 11:03:01;;;;;;;2.58;1.30;;;20.40;59.70;;;;;;5018198;28;20034;-65
2023/01/08 11:05:33;;;;;;;2.58;1.40;;;20.40;59.70;;;;;;5019915;28;20462;-66
2023/01/08 11:08:00;;;;;;;2.63;1.30;;;20.40;59.80;;;;;;5020489;28;20049;-65
2023/01/08 11:10:27;;;;;;;2.20;1.25;;;20.40;59.80;;;;;;5020729;28;20038;-66
2023/01/08 11:13:05;;;;;;;2.55;1.60;;;20.40;59.90;;;;;;5022014;28;20065;-65
2023/01/08 11:15:37;;;;;;;2.15;1.40;;;20.40;59.90;;;;;;5017294;28;20069;-65
2023/01/08 11:18:16;;;;;;;4.82;1.30;;;20.40;60.00;;;;;;5019242;28;20099;-66
2023/01/08 11:20:41;;;;;;;3.23;1.43;;;20.40;60.10;;;;;;5020635;28;20029;-66
2023/01/08 11:23:23;;;;;;;3.60;1.40;;;20.40;60.10;;;;;;5021479;28;20333;-67
2023/01/08 11:26:13;;;;;;;2.28;1.40;;;20.40;60.20;;;;;;5018294;28;20049;-65
2023/01/08 11:28:45;;;;;;;2.03;1.35;;;20.40;60.20;;;;;;5018737;28;20401;-66
2023/01/08 11:31:20;;;;;;;2.13;1.30;;;20.50;60.50;;;;;;5021595;28;20125;-65
2023/01/08 11:33:51;;;;;;;2.22;1.45;;;20.40;60.50;;;;;;5018031;28;20040;-65
2023/01/08 11:36:32;;;;;;;3.35;1.52;;;20.40;60.70;;;;;;5017529;28;20030;-66
2023/01/08 11:38:58;;;;;;;3.13;1.30;;;20.40;60.60;;;;;;5019755;28;20093;-66
2023/01/08 11:42:02;;;;;;;3.75;1.55;;;20.40;60.60;;;;;;5020791;28;20026;-65
2023/01/08 11:45:06;;;;;;;2.92;1.60;;;20.40;60.80;;;;;;5017523;28;20436;-67
2023/01/08 11:47:50;;;;;;;2.58;1.40;;;20.40;60.80;;;;;;5018259;28;20237;-65
2023/01/08 11:50:39;;;;;;;3.08;1.50;;;20.40;61.00;;;;;;5023093;28;20037;-66
2023/01/08 11:53:52;;;;;;;2.42;1.60;;;20.50;61.30;;;;;;5019598;28;20021;-65
2023/01/08 11:56:54;;;;;;;2.67;1.75;;;20.40;61.20;;;;;;5040270;28;20048;-65
2023/01/08 12:00:01;;;;;;;2.92;1.63;;;20.50;61.50;;;;;;5043623;28;20570;-66
2023/01/08 12:02:49;;;;;;;2.60;1.60;;;20.50;61.60;;;;;;5012630;28;20103;-65
2023/01/08 12:05:29;;;;;;;3.03;1.55;;;20.40;61.70;;;;;;5018117;28;20027;-66
2023/01/08 12:08:00;;;;;;;4.53;1.77;;;20.40;61.60;;;;;;5019399;28;20493;-65
2023/01/08 12:10:46;;;;;;;3.75;1.80;;;20.40;61.50;;;;;;5017621;28;20026;-65
2023/01/08 12:13:30;;;;;;;3.13;1.75;;;20.50;61.80;;;;;;5017493;28;20057;-66
2023/01/08 12:16:04;;;;;;;2.75;1.63;;;20.40;61.60;;;;;;5017809;28;20017;-65
2023/01/08 12:18:38;;;;;;;3.03;1.70;;;20.40;61.70;;;;;;5023530;28;20449;-65
2023/01/08 12:21:22;;;;;;;3.35;1.75;;;20.50;61.70;;;;;;5018240;28;20056;-64
2023/01/08 12:24:07;;;;;;;3.13;1.80;;;20.40;61.60;;;;;;5023171;28;20038;-64
2023/01/08 12:27:00;;;;;;;2.90;1.90;;;20.50;61.60;;;;;;5020771;28;20460;-64
2023/01/08 12:29:56;;;;;;;3.45;1.80;;;20.70;61.70;;;;;;5020298;28;20029;-64
2023/01/08 12:32:38;;;;;;;2.45;1.50;;;20.80;61.50;;;;;;5022345;28;20025;-65
2023/01/08 12:35:20;;;;;;;2.35;1.50;;;20.80;61.60;;;;;;5015086;28;20041;-64
2023/01/08 12:37:58;;;;;;;2.97;1.52;;;20.90;61.40;;;;;;5014934;28;20026;-64
2023/01/08 12:40:34;;;;;;;3.47;1.80;;;20.90;61.10;;;;;;5019558;28;20454;-65
2023/01/08 12:43:06;;;;;;;2.70;1.60;;;21.00;60.90;;;;;;5013558;28;20171;-64
2023/01/08 12:45:37;;;;;;;2.72;1.60;;;21.10;60.70;;;;;;5016881;28;20493;-65
2023/01/08 12:48:08;;;;;;;3.38;1.80;;;21.10;60.30;;;;;;5018821;28;20469;-64
2023/01/08 12:50:45;;;;;;;2.80;1.90;;;21.20;60.60;;;;;;5020044;28;20435;-64
2023/01/08 12:53:49;;;;;;;3.03;1.73;;;21.20;60.00;;;;;;5016804;28;20434;-65
2023/01/08 12:56:17;;;;;;;3.13;1.70;;;21.30;59.90;;;;;;5027491;28;20041;-65
2023/01/08 12:58:46;;;;;;;4.00;1.75;;;21.30;60.20;;;;;;5018360;28;20022;-64
2023/01/08 13:01:29;;;;;;;2.95;1.88;;;21.40;59.70;;;;;;5022392;28;20033;-63